Latest Coastal Weather Observations for Brisbane Airport

IDQ60701

Issued at 7:55 pm EST Sunday 23 November 2014 (issued every 10 minutes, with the page automatically refreshed every 10 minutes)

About coastal observations | Map of coastal stations | Coastal observations for QLD | Marine services | Other Formats
Station Details ID: 040842 Name: BRISBANE AERO Lat: -27.39 Lon: 153.13 Height: 4.51 m
Data from the previous 72 hours. | See also: Recent months at Brisbane Airport
Date/Time
EST
Temp

°C
Wind Pressure Rain
since 9am
mm
Weather Cloud Vis
km
Sea
Height
m
Swell
Dir
 
Speed
knots
Gust
knots
hPa Trend Height
m
Period
s
Dir
23/07:30pm 24.8 N 16 20 1015.5 - 0.0 - - 10 - - - -
23/07:00pm 25.0 N 15 19 1015.2 - 0.0 - - 10 - - - -
23/06:30pm 25.2 N 15 19 1014.9 - 0.0 - - 10 - - - -
23/06:00pm 25.4 N 16 20 1014.3 F 0.0 Fine Mostly cloudy 30 - - - -
23/05:30pm 25.8 N 17 21 1013.9 - 0.0 - - 10 - - - -
23/05:00pm 26.3 N 17 22 1013.7 - 0.0 - Mostly clear 10 - - - -
23/04:30pm 26.7 N 16 20 1013.9 - 0.0 - Mostly clear 10 - - - -
23/04:00pm 27.3 N 19 24 1013.9 - 0.0 - Mostly clear 10 - - - -
23/03:30pm 28.0 N 18 23 1014.0 - 0.0 - Mostly clear 10 - - - -
23/03:00pm 27.6 N 18 25 1014.4 F 0.0 Haze Mostly clear 25 - - - -
23/02:30pm 28.0 N 18 22 1014.6 - 0.0 - Mostly clear 10 - - - -
23/02:00pm 28.2 N 20 25 1014.8 - 0.0 - Mostly clear 10 - - - -
23/01:30pm 27.7 N 19 24 1015.1 - 0.0 - Mostly clear 10 - - - -
23/01:00pm 27.8 N 18 25 1015.5 - 0.0 - Mostly clear 10 - - - -
23/12:30pm 27.7 N 19 25 1015.7 - 0.0 - Mostly clear 10 - - - -
23/12:00pm 27.9 NNE 19 23 1016.3 F 0.0 Haze Mostly clear 25 - - - -
23/11:30am 28.3 N 18 22 1016.9 - 0.0 - Mostly clear 10 - - - -
23/11:00am 28.0 N 18 22 1017.3 - 0.0 - Mostly clear 10 - - - -
23/10:30am 27.8 NNE 19 23 1017.5 - 0.0 - Mostly clear 10 - - - -
23/10:00am 28.0 NNE 17 21 1017.6 - 0.0 - Mostly clear 10 - - - -
23/09:30am 27.1 NNE 15 20 1017.6 - 0.0 - Mostly clear 10 - - - -
23/09:00am 27.5 N 12 17 1017.9 R 0.0 Fine Mostly cloudy 30 - - - -
23/08:30am 27.2 N 13 17 1017.8 - 0.0 - Mostly clear 10 - - - -
23/08:00am 26.5 N 14 17 1017.9 - 0.0 - Mostly clear 10 - - - -
23/07:30am 26.5 N 14 17 1017.9 - 0.0 - Mostly clear 10 - - - -
23/07:00am 26.2 N 15 17 1017.6 - 0.0 - Mostly clear 10 - - - -
23/06:30am 25.5 N 15 20 1017.1 - 0.0 - Mostly clear 10 - - - -
23/06:00am 25.2 N 16 21 1016.6 R 0.0 Haze Partly cloudy 20 - - - -
23/05:30am 24.5 N 17 21 1016.2 - 0.0 - Partly cloudy 10 - - - -
23/05:00am 24.0 N 15 19 1016.0 - 0.0 - Partly cloudy 10 - - - -
23/04:30am 24.1 N 15 18 1015.7 - 0.0 - Mostly clear 10 - - - -
23/04:00am 24.2 N 17 21 1015.1 - 0.0 - Mostly clear 10 - - - -
23/03:30am 24.0 N 17 21 1014.7 - 0.0 - Mostly clear 10 - - - -
23/03:00am 24.0 N 16 20 1014.6 R 0.0 Haze Mostly clear 15 - - - -
23/02:30am 24.3 N 16 20 1014.6 - 0.0 - Mostly clear 10 - - - -
23/02:00am 24.4 N 17 21 1014.3 - 0.0 - Mostly clear 10 - - - -
23/01:30am 24.6 N 17 23 1014.3 - 0.0 - Mostly clear 10 - - - -
23/01:00am 24.5 N 17 21 1014.6 - 0.0 - Mostly clear 10 - - - -
23/12:30am 24.5 N 18 23 1014.8 - 0.0 - Mostly clear 10 - - - -
23/12:00am 24.6 N 19 24 1014.8 R 0.0 Haze Mostly clear 15 - - - -
 
Date/Time
EST
Temp

°C
Wind Pressure Rain
since 9am
mm
Weather Cloud Vis
km
Sea
Height
m
Swell
Dir
 
Speed
knots
Gust
knots
hPa Trend Height
m
Period
s
Dir
22/11:30pm 24.9 N 17 22 1015.1 - 0.0 - Mostly clear 10 - - - -
22/11:00pm 24.9 N 18 23 1015.2 - 0.0 - Mostly clear 10 - - - -
22/10:30pm 25.1 N 19 23 1015.2 - 0.0 - - 10 - - - -
22/10:00pm 25.1 N 19 26 1015.0 - 0.0 - - 10 - - - -
22/09:30pm 25.1 N 20 27 1014.9 - 0.0 - - 10 - - - -
22/09:06pm 25.2 N 20 30 1014.8 - 0.0 - - 10 - - - -
22/09:00pm 25.1 N 19 26 1014.7 R 0.0 Haze Mostly clear 15 - - - -
22/08:30pm 25.2 N 19 25 1014.5 - 0.0 - - 10 - - - -
22/08:00pm 25.2 N 17 20 1014.2 - 0.0 - - 10 - - - -
22/07:30pm 25.5 N 18 22 1013.8 - 0.0 - - 10 - - - -
22/07:00pm 25.3 N 18 24 1013.4 - 0.0 - - 10 - - - -
22/06:30pm 25.4 N 17 23 1012.8 - 0.0 - - 10 - - - -
22/06:00pm 25.7 N 18 25 1012.4 F 0.0 Haze Mostly cloudy 16 - - - -
22/05:30pm 26.0 N 21 25 1012.2 - 0.0 - - 10 - - - -
22/05:00pm 26.2 N 17 22 1012.0 - 0.0 - Mostly clear 10 - - - -
22/04:30pm 26.5 N 20 26 1011.8 - 0.0 - Mostly clear 10 - - - -
22/04:00pm 27.3 N 17 22 1011.6 - 0.0 - Mostly clear 10 - - - -
22/03:30pm 27.8 N 19 26 1011.6 - 0.0 - Mostly clear 10 - - - -
22/03:00pm 27.8 NNE 20 27 1011.7 F 0.0 Haze Mostly clear 16 - - - -
22/02:30pm 28.0 NNE 21 28 1011.7 - 0.0 - Mostly clear 10 - - - -
22/02:00pm 28.1 NNE 22 27 1012.1 - 0.0 - Mostly clear 10 - - - -
22/01:30pm 28.9 NNE 21 29 1012.4 - 0.0 - Mostly clear 10 - - - -
22/01:00pm 28.0 NNE 21 28 1012.5 - 0.0 - Mostly clear 10 - - - -
22/12:30pm 28.8 NNE 21 26 1012.9 - 0.0 - Mostly clear 10 - - - -
22/12:00pm 28.0 NNE 20 27 1013.3 F 0.0 Haze Mostly clear 15 - - - -
22/11:30am 28.2 NNE 19 25 1013.7 - 0.0 - Mostly clear 10 - - - -
22/11:00am 28.1 N 19 23 1014.0 - 0.0 - Mostly clear 10 - - - -
22/10:30am 28.4 N 18 24 1014.4 - 0.0 - Mostly clear 10 - - - -
22/10:00am 27.9 NNE 18 21 1014.7 - 0.0 - Mostly clear 10 - - - -
22/09:30am 29.0 N 15 18 1014.9 - 0.0 - Mostly clear 10 - - - -
22/09:00am 28.6 N 10 14 1014.9 S 0.0 Fine Partly cloudy 30 - - - -
22/08:30am 27.4 N 13 16 1014.9 - 0.0 - Mostly clear 10 - - - -
22/08:00am 26.5 N 13 14 1015.1 - 0.0 - Mostly clear 10 - - - -
22/07:30am 26.5 N 11 14 1015.1 - 0.0 - Mostly clear 10 - - - -
22/07:00am 25.9 N 11 14 1015.1 - 0.0 - Mostly clear 10 - - - -
22/06:30am 25.8 N 14 17 1014.5 - 0.0 - Mostly clear 10 - - - -
22/06:00am 25.1 N 12 15 1014.2 R 0.0 Haze Partly cloudy 20 - - - -
22/05:30am 24.5 N 14 18 1014.1 - 0.0 - Mostly clear 10 - - - -
22/05:00am 24.4 N 16 20 1013.5 - 0.0 - Mostly clear 10 - - - -
22/04:30am 24.3 N 16 20 1013.1 - 0.0 - Mostly clear 10 - - - -
22/04:00am 24.2 N 17 20 1012.7 - 0.0 - Mostly clear 10 - - - -
22/03:30am 24.4 N 17 21 1012.3 - 0.0 - Mostly clear 10 - - - -
22/03:00am 24.4 N 13 17 1012.4 R 0.0 Haze Mostly cloudy 20 - - - -
22/02:30am 24.6 N 17 20 1012.0 - 0.0 - Mostly clear 10 - - - -
22/02:00am 24.7 N 19 25 1011.3 - 0.0 - Mostly clear 10 - - - -
22/01:30am 24.8 N 20 24 1011.5 - 0.0 - Mostly clear 10 - - - -
22/01:00am 24.9 N 17 23 1011.9 - 0.0 - Mostly clear 10 - - - -
22/12:30am 25.1 N 17 22 1012.5 - 0.0 - Mostly clear 10 - - - -
22/12:00am 24.9 N 21 24 1012.1 F 0.0 Haze Mostly cloudy 20 - - - -
 
Date/Time
EST
Temp

°C
Wind Pressure Rain
since 9am
mm
Weather Cloud Vis
km
Sea
Height
m
Swell
Dir
 
Speed
knots
Gust
knots
hPa Trend Height
m
Period
s
Dir
21/11:30pm 25.1 N 18 22 1012.4 - 0.0 - Mostly clear 10 - - - -
21/11:00pm 25.2 N 18 22 1013.1 - 0.0 - Mostly clear 10 - - - -
21/10:30pm 25.1 N 16 20 1013.5 - 0.0 - Mostly clear 10 - - - -
21/10:00pm 25.2 N 17 22 1013.4 - 0.0 - Mostly clear 10 - - - -
21/09:30pm 25.2 N 17 22 1013.4 - 0.0 - Mostly clear 10 - - - -
21/09:00pm 25.2 N 18 24 1013.5 R 0.0 Haze Mostly clear 18 - - - -
21/08:30pm 25.2 N 20 26 1012.4 - 0.0 - Mostly clear 10 - - - -
21/08:00pm 25.3 N 19 25 1012.5 - 0.0 - Mostly clear 10 - - - -
21/07:30pm 25.3 N 19 24 1012.4 - 0.0 - Mostly clear 10 - - - -
21/07:00pm 25.4 N 20 26 1012.1 - 0.0 - Mostly clear 10 - - - -
21/06:30pm 25.3 N 19 25 1011.9 - 0.0 - Mostly clear 10 - - - -
21/06:00pm 25.5 N 20 27 1011.4 R 0.0 Haze Mostly clear 20 - - - -
21/05:30pm 25.9 N 22 27 1011.1 - 0.0 - Mostly clear 10 - - - -
21/05:00pm 26.4 N 21 27 1011.0 - 0.0 - Mostly clear 10 - - - -
21/04:30pm 26.7 N 21 29 1010.6 - 0.0 - Mostly clear 10 - - - -
21/04:00pm 27.2 N 22 27 1010.9 - 0.0 - Mostly clear 10 - - - -
21/03:30pm 27.7 N 22 27 1010.9 - 0.0 - Mostly clear 10 - - - -
21/03:00pm 27.5 NNE 23 30 1010.9 F 0.0 Haze Partly cloudy 25 - - - -
21/02:30pm 27.6 N 22 30 1011.2 - 0.0 - Mostly clear 10 - - - -
21/02:00pm 27.9 N 22 27 1011.6 - 0.0 - Mostly clear 10 - - - -
21/01:30pm 27.7 NNE 22 27 1012.0 - 0.0 - Mostly clear 10 - - - -
21/01:00pm 28.3 NNE 21 27 1012.4 - 0.0 - Mostly clear 10 - - - -
21/12:30pm 28.0 NNE 19 26 1013.1 - 0.0 - Mostly clear 10 - - - -
21/12:00pm 28.0 NNE 20 26 1013.5 F 0.0 Fine Mostly cloudy 30 - - - -
21/11:30am 28.3 N 20 25 1014.0 - 0.0 - Mostly clear 10 - - - -
21/11:00am 27.9 N 19 24 1014.5 - 0.0 - Mostly clear 10 - - - -
21/10:30am 27.7 N 19 23 1014.8 - 0.0 - Mostly clear 10 - - - -
21/10:00am 28.1 NNE 18 22 1015.1 - 0.0 - Mostly clear 10 - - - -
21/09:30am 28.0 N 15 19 1015.5 - 0.0 - Mostly clear 10 - - - -
21/09:00am 27.4 N 15 17 1015.7 F 0.0 Fine Partly cloudy 30 - - - -
21/08:30am 27.3 N 13 15 1015.7 - 0.0 - Mostly clear 10 - - - -
21/08:00am 26.5 N 14 18 1015.9 - 0.0 - Mostly clear 10 - - - -
21/07:30am 25.4 N 15 18 1016.2 - 0.0 - Mostly clear 10 - - - -
21/07:00am 25.8 N 15 18 1016.0 - 0.0 - Mostly clear 10 - - - -
21/06:30am 24.6 N 15 18 1015.8 - 0.0 - Mostly clear 10 - - - -
21/06:00am 24.3 N 13 17 1015.6 F 0.0 Distant precip. Partly cloudy 20 - - - -
21/05:30am 23.6 N 11 14 1015.0 - 0.0 - Mostly clear 10 - - - -
21/05:00am 23.4 N 11 15 1015.0 - 0.0 - Mostly clear 10 - - - -
21/04:30am 23.5 N 13 16 1014.9 - 0.0 - Mostly clear 10 - - - -
21/04:00am 23.6 N 11 14 1014.8 - 0.0 - Mostly clear 10 - - - -
21/03:30am 23.4 N 11 16 1014.6 - 0.0 - Mostly clear 10 - - - -
21/03:00am 23.6 NNW 11 15 1014.6 F 0.0 Distant precip. Partly cloudy 20 - - - -
21/02:30am 24.2 N 14 17 1014.7 - 0.0 - Partly cloudy 10 - - - -
21/02:00am 24.0 N 16 20 1014.6 - 0.0 Drizzle Partly cloudy 10 - - - -
21/01:30am 24.2 N 16 20 1014.6 - 0.0 Drizzle Mostly cloudy 10 - - - -
21/01:00am 24.3 N 15 19 1014.8 - 0.0 - Mostly cloudy 10 - - - -
21/12:30am 24.3 N 16 20 1015.1 - 0.0 - Partly cloudy 10 - - - -
21/12:00am 24.3 N 16 19 1015.6 F 0.0 Distant precip. Mostly cloudy 30 - - - -
 
Date/Time
EST
Temp

°C
Wind Pressure Rain
since 9am
mm
Weather Cloud Vis
km
Sea
Height
m
Swell
Dir
 
Speed
knots
Gust
knots
hPa Trend Height
m
Period
s
Dir
20/11:30pm 24.6 N 13 16 1016.1 - 0.0 - Partly cloudy 10 - - - -
20/11:00pm 24.5 N 15 20 1016.3 - 0.0 - Partly cloudy 10 - - - -
20/10:30pm 24.5 N 15 19 1016.7 - 0.0 - Partly cloudy 10 - - - -
20/10:00pm 24.5 N 15 18 1016.7 - 0.0 - Mostly clear 10 - - - -
20/09:30pm 24.7 N 17 20 1016.6 - 0.0 - Mostly clear 10 - - - -
20/09:00pm 24.6 N 17 21 1016.4 S 0.0 Fine Mostly cloudy 30 - - - -
20/08:30pm 24.5 N 16 21 1016.2 - 0.0 - Mostly clear 10 - - - -
20/08:00pm 24.5 N 17 20 1016.0 - 0.0 - Mostly clear 10 - - - -

Other Formats:

Comma delimited format used in spreadsheet applications
http://www.bom.gov.au/fwo/IDQ60701/IDQ60701.94578.axf

JavaScript Object Notation format (JSON) in row-major order
http://www.bom.gov.au/fwo/IDQ60701/IDQ60701.94578.json